Time;durP1;ratioP1;P1;durP2;ratioP2;P2;SDS_P1;SDS_P2;PMS_P1;PMS_P2;Temp;Humidity;BMP_temperature;BMP_pressure;BME280_temperature;BME280_humidity;BME280_pressure;Samples;Min_cycle;Max_cycle;Signal;HPM_P1;HPM_P2
2021/12/10 00:01:43;;;;;;;30.00;16.15;;;;;;;;;;4931965;29;20040;-58
2021/12/10 00:04:10;;;;;;;32.58;15.80;;;;;;;;;;4926782;29;20131;-56
2021/12/10 00:06:38;;;;;;;31.90;14.45;;;;;;;;;;4931633;29;20043;-58
2021/12/10 00:09:19;;;;;;;27.92;15.75;;;;;;;;;;4930486;29;20039;-58
2021/12/10 00:11:47;;;;;;;33.38;15.13;;;;;;;;;;4930277;29;20415;-59
2021/12/10 00:14:14;;;;;;;29.42;15.98;;;;;;;;;;4931506;29;20040;-58
2021/12/10 00:16:41;;;;;;;26.30;15.63;;;;;;;;;;4930399;29;20532;-58
2021/12/10 00:19:23;;;;;;;32.28;16.55;;;;;;;;;;4930773;29;20122;-58
2021/12/10 00:21:50;;;;;;;27.80;16.45;;;;;;;;;;4931819;29;20048;-59
2021/12/10 00:24:16;;;;;;;29.95;14.40;;;;;;;;;;4932536;29;20075;-57
2021/12/10 00:26:43;;;;;;;24.35;14.48;;;;;;;;;;4929876;29;20044;-58
2021/12/10 00:29:10;;;;;;;28.02;15.35;;;;;;;;;;4930632;29;20446;-58
2021/12/10 00:34:10;;;;;;;25.20;14.57;;;;;;;;;;4932515;29;20055;-58
2021/12/10 00:36:37;;;;;;;31.98;13.25;;;;;;;;;;4930325;29;20051;-59
2021/12/10 00:39:08;;;;;;;25.60;14.50;;;;;;;;;;4931647;29;20115;-58
2021/12/10 00:41:34;;;;;;;25.52;12.40;;;;;;;;;;4930261;29;20046;-58
2021/12/10 00:44:01;;;;;;;26.33;12.98;;;;;;;;;;4931452;29;20032;-58
2021/12/10 00:46:27;;;;;;;23.63;13.65;;;;;;;;;;4933163;29;20042;-58
2021/12/10 00:48:53;;;;;;;28.33;12.63;;;;;;;;;;4931418;29;20042;-57
2021/12/10 00:51:19;;;;;;;21.63;13.13;;;;;;;;;;4932249;29;20050;-58
2021/12/10 00:53:47;;;;;;;23.67;12.35;;;;;;;;;;4930924;29;20052;-58
2021/12/10 00:56:13;;;;;;;25.95;11.65;;;;;;;;;;4931143;29;20166;-58
2021/12/10 00:58:40;;;;;;;22.60;11.48;;;;;;;;;;4932166;29;20111;-58
2021/12/10 01:01:12;;;;;;;31.20;11.95;;;;;;;;;;4931185;29;20055;-58
2021/12/10 01:03:45;;;;;;;25.08;11.55;;;;;;;;;;4932744;29;20538;-58
2021/12/10 01:06:12;;;;;;;24.67;10.85;;;;;;;;;;4932726;29;20046;-58
2021/12/10 01:08:40;;;;;;;21.02;10.07;;;;;;;;;;4929917;29;20043;-58
2021/12/10 01:11:27;;;;;;;20.08;10.50;;;;;;;;;;4927264;29;20490;-58
2021/12/10 01:14:00;;;;;;;14.55;9.68;;;;;;;;;;4918771;29;20098;-58
2021/12/10 01:25:04;;;;;;;25.17;9.93;;;;;;;;;;4931369;29;20039;-58
2021/12/10 01:27:33;;;;;;;16.85;8.77;;;;;;;;;;4931210;29;20046;-58
2021/12/10 01:30:04;;;;;;;20.98;9.45;;;;;;;;;;4931281;29;20134;-58
2021/12/10 01:32:33;;;;;;;22.20;10.02;;;;;;;;;;4932726;29;20043;-58
2021/12/10 01:34:59;;;;;;;20.15;10.38;;;;;;;;;;4934531;29;20066;-58
2021/12/10 01:37:25;;;;;;;19.08;9.48;;;;;;;;;;4936119;29;20190;-58
2021/12/10 01:39:52;;;;;;;19.33;9.82;;;;;;;;;;4933328;29;20451;-59
2021/12/10 01:44:47;;;;;;;20.27;8.43;;;;;;;;;;4934690;29;20059;-58
2021/12/10 01:47:14;;;;;;;21.27;9.75;;;;;;;;;;4936194;29;20047;-59
2021/12/10 01:49:42;;;;;;;20.95;9.60;;;;;;;;;;4934824;29;20040;-58
2021/12/10 01:52:09;;;;;;;18.23;8.88;;;;;;;;;;4931336;29;20486;-58
2021/12/10 01:54:39;;;;;;;18.35;9.52;;;;;;;;;;4933711;29;20118;-58
2021/12/10 01:57:06;;;;;;;18.10;10.23;;;;;;;;;;4934859;29;20414;-58
2021/12/10 01:59:34;;;;;;;22.85;9.85;;;;;;;;;;4934692;29;20044;-58
2021/12/10 02:02:03;;;;;;;21.08;10.98;;;;;;;;;;4933899;29;20043;-58
2021/12/10 02:04:30;;;;;;;21.80;9.98;;;;;;;;;;4933975;29;20055;-58
2021/12/10 02:06:57;;;;;;;23.45;10.55;;;;;;;;;;4935715;29;20040;-59
2021/12/10 02:09:23;;;;;;;24.50;10.40;;;;;;;;;;4934733;29;20091;-58
2021/12/10 02:11:50;;;;;;;22.02;10.00;;;;;;;;;;4933572;29;20272;-58
2021/12/10 02:14:16;;;;;;;15.68;10.18;;;;;;;;;;4935337;29;20121;-58
2021/12/10 02:16:43;;;;;;;22.50;9.80;;;;;;;;;;4934466;29;20055;-58
2021/12/10 02:19:10;;;;;;;17.50;9.90;;;;;;;;;;4933503;29;20044;-58
2021/12/10 02:21:39;;;;;;;24.25;10.20;;;;;;;;;;4935143;29;20071;-58
2021/12/10 02:24:05;;;;;;;22.45;9.70;;;;;;;;;;4931922;29;20106;-58
2021/12/10 02:26:33;;;;;;;19.17;9.65;;;;;;;;;;4933935;29;20036;-58
2021/12/10 02:28:59;;;;;;;16.98;10.23;;;;;;;;;;4933632;29;20035;-58
2021/12/10 02:31:26;;;;;;;17.60;9.15;;;;;;;;;;4935848;29;20036;-58
2021/12/10 02:33:54;;;;;;;17.90;8.93;;;;;;;;;;4933675;29;20067;-58
2021/12/10 02:36:20;;;;;;;20.90;8.70;;;;;;;;;;4934753;29;20106;-58
2021/12/10 02:38:48;;;;;;;15.30;8.70;;;;;;;;;;4932652;29;20059;-58
2021/12/10 02:41:15;;;;;;;18.63;8.77;;;;;;;;;;4933397;29;20125;-58
2021/12/10 02:43:41;;;;;;;20.77;9.40;;;;;;;;;;4930646;29;20098;-58
2021/12/10 02:46:07;;;;;;;18.80;8.70;;;;;;;;;;4934175;29;20082;-58
2021/12/10 02:48:34;;;;;;;15.02;8.90;;;;;;;;;;4933919;29;20043;-58
2021/12/10 02:51:01;;;;;;;22.50;9.50;;;;;;;;;;4929135;29;20055;-58
2021/12/10 02:53:29;;;;;;;20.58;9.05;;;;;;;;;;4921704;29;20055;-58
2021/12/10 02:55:57;;;;;;;17.23;7.90;;;;;;;;;;4932600;29;20510;-57
2021/12/10 02:58:23;;;;;;;17.92;9.35;;;;;;;;;;4933402;29;20492;-58
2021/12/10 03:01:04;;;;;;;14.48;8.40;;;;;;;;;;4934289;29;20122;-58
2021/12/10 03:03:30;;;;;;;20.58;8.98;;;;;;;;;;4932509;29;20051;-59
2021/12/10 03:05:57;;;;;;;17.45;8.13;;;;;;;;;;4932849;29;20074;-58
2021/12/10 03:08:23;;;;;;;16.15;8.18;;;;;;;;;;4934720;29;20051;-58
2021/12/10 03:10:49;;;;;;;17.83;7.60;;;;;;;;;;4932024;29;20139;-58
2021/12/10 03:13:15;;;;;;;15.35;8.25;;;;;;;;;;4934057;29;20122;-58
2021/12/10 03:15:43;;;;;;;18.92;8.48;;;;;;;;;;4932639;29;20478;-57
2021/12/10 03:18:10;;;;;;;16.52;8.23;;;;;;;;;;4933210;29;20560;-58
2021/12/10 03:20:37;;;;;;;15.70;8.68;;;;;;;;;;4933561;29;20094;-57
2021/12/10 03:23:05;;;;;;;14.48;8.73;;;;;;;;;;4926576;29;20048;-58
2021/12/10 03:25:31;;;;;;;17.80;8.30;;;;;;;;;;4926876;29;20043;-58
2021/12/10 03:27:57;;;;;;;15.65;8.70;;;;;;;;;;4927748;29;20102;-57
2021/12/10 03:30:26;;;;;;;16.52;8.75;;;;;;;;;;4927163;29;20055;-58
2021/12/10 03:32:52;;;;;;;14.63;8.32;;;;;;;;;;4927442;29;20050;-58
2021/12/10 03:35:25;;;;;;;14.65;8.02;;;;;;;;;;4930392;29;20116;-58
2021/12/10 03:37:51;;;;;;;11.98;7.05;;;;;;;;;;4934518;29;20039;-58
2021/12/10 03:40:18;;;;;;;14.98;7.80;;;;;;;;;;4927382;29;20047;-58
2021/12/10 03:42:44;;;;;;;13.25;7.70;;;;;;;;;;4932160;29;20086;-58
2021/12/10 03:45:11;;;;;;;15.23;7.93;;;;;;;;;;4931627;29;20051;-58
2021/12/10 03:47:38;;;;;;;11.20;6.97;;;;;;;;;;4932850;29;20494;-58
2021/12/10 03:50:06;;;;;;;20.85;8.40;;;;;;;;;;4933382;29;20043;-58
2021/12/10 03:52:33;;;;;;;15.32;7.70;;;;;;;;;;4931332;29;20390;-58
2021/12/10 03:55:00;;;;;;;13.73;8.05;;;;;;;;;;4930983;29;20063;-58
2021/12/10 03:57:26;;;;;;;13.30;7.57;;;;;;;;;;4932222;29;20031;-58
2021/12/10 03:59:52;;;;;;;13.23;7.57;;;;;;;;;;4932389;29;20058;-58
2021/12/10 04:02:19;;;;;;;15.38;8.00;;;;;;;;;;4933708;29;20044;-58
2021/12/10 04:04:46;;;;;;;14.73;7.50;;;;;;;;;;4930036;29;20487;-57
2021/12/10 04:07:18;;;;;;;16.13;7.30;;;;;;;;;;4933602;29;20138;-58
2021/12/10 04:09:44;;;;;;;13.45;7.40;;;;;;;;;;4929507;29;20055;-59
2021/12/10 04:12:10;;;;;;;14.15;7.45;;;;;;;;;;4932228;29;20039;-58
2021/12/10 04:14:36;;;;;;;12.82;7.53;;;;;;;;;;4931734;29;20047;-59
2021/12/10 04:17:03;;;;;;;11.75;7.60;;;;;;;;;;4933671;29;20035;-58
2021/12/10 04:19:30;;;;;;;15.70;7.97;;;;;;;;;;4931502;29;20043;-57
2021/12/10 04:21:57;;;;;;;14.55;7.30;;;;;;;;;;4933276;29;20446;-58
2021/12/10 04:24:24;;;;;;;18.38;8.48;;;;;;;;;;4930978;29;20043;-58
2021/12/10 04:26:52;;;;;;;14.38;7.70;;;;;;;;;;4932912;29;20048;-58
2021/12/10 04:29:20;;;;;;;16.50;8.45;;;;;;;;;;4932418;29;20110;-58
2021/12/10 04:31:47;;;;;;;18.08;9.32;;;;;;;;;;4932053;29;20040;-58
2021/12/10 04:34:13;;;;;;;16.92;9.52;;;;;;;;;;4932239;29;20032;-58
2021/12/10 04:36:39;;;;;;;17.60;10.52;;;;;;;;;;4930399;29;20042;-57
2021/12/10 04:39:05;;;;;;;16.88;9.65;;;;;;;;;;4931797;29;20044;-58
2021/12/10 04:41:31;;;;;;;17.48;9.90;;;;;;;;;;4931051;29;20035;-58
2021/12/10 04:43:57;;;;;;;15.80;9.63;;;;;;;;;;4933067;29;20040;-58
2021/12/10 04:46:23;;;;;;;19.52;10.75;;;;;;;;;;4929486;29;20063;-58
2021/12/10 04:48:57;;;;;;;17.60;10.82;;;;;;;;;;4933019;29;20048;-58
2021/12/10 04:51:26;;;;;;;15.25;10.02;;;;;;;;;;4931805;29;20406;-58
2021/12/10 04:53:53;;;;;;;22.17;10.07;;;;;;;;;;4932537;29;20503;-58
2021/12/10 04:56:20;;;;;;;15.85;9.73;;;;;;;;;;4929951;29;20135;-58
2021/12/10 04:58:46;;;;;;;16.48;10.30;;;;;;;;;;4933322;29;20051;-58
2021/12/10 05:01:12;;;;;;;16.30;10.07;;;;;;;;;;4930127;29;20039;-58
2021/12/10 05:03:38;;;;;;;15.50;9.57;;;;;;;;;;4935549;29;20110;-57
2021/12/10 05:06:04;;;;;;;18.15;9.75;;;;;;;;;;4931192;29;20047;-58
2021/12/10 05:08:32;;;;;;;16.25;9.90;;;;;;;;;;4926651;29;20058;-58
2021/12/10 05:10:58;;;;;;;18.20;9.50;;;;;;;;;;4930770;29;20397;-59
2021/12/10 05:13:24;;;;;;;14.25;9.98;;;;;;;;;;4936909;29;20050;-58
2021/12/10 05:15:56;;;;;;;15.63;8.43;;;;;;;;;;4933821;29;20418;-58
2021/12/10 05:18:23;;;;;;;15.35;9.13;;;;;;;;;;4935514;29;20043;-58
2021/12/10 05:20:49;;;;;;;17.55;8.95;;;;;;;;;;4934085;29;20623;-58
2021/12/10 05:23:19;;;;;;;14.55;8.27;;;;;;;;;;4936314;29;20043;-58
2021/12/10 05:25:45;;;;;;;19.33;9.93;;;;;;;;;;4934343;29;20405;-58
2021/12/10 05:28:13;;;;;;;15.10;9.30;;;;;;;;;;4930783;29;20054;-58
2021/12/10 05:30:39;;;;;;;14.95;8.98;;;;;;;;;;4933967;29;20138;-58
2021/12/10 05:33:07;;;;;;;15.00;9.25;;;;;;;;;;4936282;29;20032;-58
2021/12/10 05:35:34;;;;;;;15.23;9.07;;;;;;;;;;4935080;29;20102;-58
2021/12/10 05:38:00;;;;;;;13.20;8.05;;;;;;;;;;4935064;29;20054;-58
2021/12/10 05:40:26;;;;;;;14.60;9.57;;;;;;;;;;4935056;29;20182;-58
2021/12/10 05:42:53;;;;;;;15.25;8.50;;;;;;;;;;4935103;29;20130;-57
2021/12/10 05:45:20;;;;;;;15.27;7.93;;;;;;;;;;4935029;29;20422;-58
2021/12/10 05:47:46;;;;;;;12.10;7.07;;;;;;;;;;4934731;29;20056;-58
2021/12/10 05:50:14;;;;;;;12.57;7.95;;;;;;;;;;4934329;29;20048;-58
2021/12/10 05:52:40;;;;;;;16.55;8.52;;;;;;;;;;4934299;29;20035;-58
2021/12/10 05:55:06;;;;;;;15.35;9.25;;;;;;;;;;4934962;29;20054;-58
2021/12/10 05:57:32;;;;;;;14.77;8.52;;;;;;;;;;4934102;29;20091;-58
2021/12/10 05:59:59;;;;;;;13.30;8.32;;;;;;;;;;4935728;29;20054;-58
2021/12/10 06:02:25;;;;;;;13.75;8.70;;;;;;;;;;4933250;29;20146;-58
2021/12/10 06:04:51;;;;;;;13.07;8.18;;;;;;;;;;4935685;29;20047;-58
2021/12/10 06:07:18;;;;;;;17.10;9.18;;;;;;;;;;4934559;29;20054;-58
2021/12/10 06:09:44;;;;;;;14.57;7.95;;;;;;;;;;4935861;29;20500;-59
2021/12/10 06:12:10;;;;;;;16.25;8.70;;;;;;;;;;4934367;29;20043;-58
2021/12/10 06:14:37;;;;;;;11.57;6.53;;;;;;;;;;4933445;29;20106;-57
2021/12/10 06:17:03;;;;;;;9.73;6.03;;;;;;;;;;4932415;29;20098;-58
2021/12/10 06:19:29;;;;;;;12.10;8.18;;;;;;;;;;4935146;29;20130;-58
2021/12/10 06:21:55;;;;;;;13.73;8.48;;;;;;;;;;4934509;29;20047;-58
2021/12/10 06:24:22;;;;;;;12.27;8.23;;;;;;;;;;4933629;29;20046;-58
2021/12/10 06:26:51;;;;;;;13.75;8.05;;;;;;;;;;4932695;29;20049;-58
2021/12/10 06:29:17;;;;;;;12.85;7.50;;;;;;;;;;4935039;29;20123;-57
2021/12/10 06:31:43;;;;;;;17.75;8.93;;;;;;;;;;4933360;29;20094;-58
2021/12/10 06:34:10;;;;;;;13.48;7.53;;;;;;;;;;4934254;29;20032;-58
2021/12/10 06:36:36;;;;;;;11.73;8.20;;;;;;;;;;4934671;29;20044;-58
2021/12/10 06:39:04;;;;;;;13.60;7.43;;;;;;;;;;4934582;29;20044;-58
2021/12/10 06:41:30;;;;;;;11.55;8.02;;;;;;;;;;4935120;29;20054;-58
2021/12/10 06:43:56;;;;;;;13.00;8.10;;;;;;;;;;4933608;29;20048;-58
2021/12/10 06:46:23;;;;;;;9.88;7.13;;;;;;;;;;4933607;29;20140;-59
2021/12/10 06:48:49;;;;;;;13.15;7.30;;;;;;;;;;4933902;29;20044;-58
2021/12/10 06:51:16;;;;;;;13.23;7.78;;;;;;;;;;4934979;29;20048;-59
2021/12/10 06:53:43;;;;;;;14.40;7.55;;;;;;;;;;4926374;29;20058;-59
2021/12/10 06:56:10;;;;;;;12.40;7.38;;;;;;;;;;4930338;29;20102;-59
2021/12/10 06:58:36;;;;;;;9.73;6.80;;;;;;;;;;4933429;29;20059;-59
2021/12/10 07:01:14;;;;;;;14.85;7.03;;;;;;;;;;4932729;29;20390;-59
2021/12/10 07:03:41;;;;;;;12.48;6.82;;;;;;;;;;4934169;29;20119;-59
2021/12/10 07:06:07;;;;;;;12.45;6.55;;;;;;;;;;4933991;29;20401;-59
2021/12/10 07:08:35;;;;;;;8.43;5.97;;;;;;;;;;4932727;29;20044;-59
2021/12/10 07:11:02;;;;;;;11.13;6.18;;;;;;;;;;4934131;29;20043;-58
2021/12/10 07:13:28;;;;;;;8.30;6.10;;;;;;;;;;4934210;29;20131;-59
2021/12/10 07:15:55;;;;;;;10.10;6.05;;;;;;;;;;4929340;29;20106;-58
2021/12/10 07:18:22;;;;;;;12.07;6.20;;;;;;;;;;4933136;29;20066;-59
2021/12/10 07:20:49;;;;;;;9.50;6.28;;;;;;;;;;4933902;29;20127;-58
2021/12/10 07:23:15;;;;;;;10.77;6.30;;;;;;;;;;4933844;29;20138;-58
2021/12/10 07:25:41;;;;;;;13.07;6.68;;;;;;;;;;4933960;29;20036;-59
2021/12/10 07:28:08;;;;;;;10.57;5.95;;;;;;;;;;4933813;29;20050;-59
2021/12/10 07:30:34;;;;;;;13.32;6.15;;;;;;;;;;4933771;29;20039;-59
2021/12/10 07:33:00;;;;;;;10.75;5.55;;;;;;;;;;4933781;29;20094;-60
2021/12/10 07:35:26;;;;;;;8.90;5.68;;;;;;;;;;4931485;29;20506;-60
2021/12/10 07:37:53;;;;;;;11.43;6.30;;;;;;;;;;4933606;29;20039;-61
2021/12/10 07:40:20;;;;;;;11.15;5.95;;;;;;;;;;4932471;29;20048;-60
2021/12/10 07:42:47;;;;;;;9.27;5.78;;;;;;;;;;4932301;29;20560;-59
2021/12/10 07:45:13;;;;;;;11.75;6.00;;;;;;;;;;4933721;29;20126;-60
2021/12/10 07:47:40;;;;;;;11.00;5.90;;;;;;;;;;4932855;29;20051;-59
2021/12/10 07:50:12;;;;;;;9.98;6.05;;;;;;;;;;4933946;29;20548;-60
2021/12/10 07:52:40;;;;;;;6.72;4.97;;;;;;;;;;4933801;29;20039;-60
2021/12/10 07:55:09;;;;;;;10.20;5.10;;;;;;;;;;4933822;29;20396;-60
2021/12/10 07:57:35;;;;;;;8.55;5.25;;;;;;;;;;4932799;29;20043;-61
2021/12/10 08:00:01;;;;;;;10.20;6.00;;;;;;;;;;4933909;29;20052;-60
2021/12/10 08:02:27;;;;;;;8.77;5.55;;;;;;;;;;4933307;29;20046;-59
2021/12/10 08:04:53;;;;;;;9.15;5.45;;;;;;;;;;4933562;29;20039;-60
2021/12/10 08:07:19;;;;;;;10.73;5.30;;;;;;;;;;4916785;29;20048;-59
2021/12/10 08:09:45;;;;;;;8.00;4.85;;;;;;;;;;4933040;29;20067;-59
2021/12/10 08:12:12;;;;;;;8.82;5.40;;;;;;;;;;4933562;29;20446;-60
2021/12/10 08:14:41;;;;;;;11.15;5.72;;;;;;;;;;4933967;29;20047;-61
2021/12/10 08:17:07;;;;;;;14.90;5.75;;;;;;;;;;4933543;29;20039;-60
2021/12/10 08:19:36;;;;;;;8.80;5.28;;;;;;;;;;4933882;29;20482;-59
2021/12/10 08:22:03;;;;;;;13.00;6.35;;;;;;;;;;4932999;29;20516;-60
2021/12/10 08:24:31;;;;;;;11.50;5.80;;;;;;;;;;4934002;29;20051;-59
2021/12/10 08:26:58;;;;;;;11.23;5.80;;;;;;;;;;4934340;29;20051;-60
2021/12/10 08:29:25;;;;;;;14.90;7.35;;;;;;;;;;4934534;29;20051;-59
2021/12/10 08:31:52;;;;;;;7.70;5.50;;;;;;;;;;4934425;29;20121;-61
2021/12/10 08:34:18;;;;;;;10.55;5.60;;;;;;;;;;4934020;29;20602;-59
2021/12/10 08:36:47;;;;;;;12.00;5.55;;;;;;;;;;4933004;29;20150;-59
2021/12/10 08:39:15;;;;;;;8.38;5.72;;;;;;;;;;4933833;29;20039;-59
2021/12/10 08:41:41;;;;;;;8.98;5.63;;;;;;;;;;4934064;29;20043;-59
2021/12/10 08:44:08;;;;;;;11.30;5.68;;;;;;;;;;4932159;29;20384;-60
2021/12/10 08:46:35;;;;;;;10.73;5.38;;;;;;;;;;4933750;29;20035;-59
2021/12/10 08:49:04;;;;;;;12.05;5.05;;;;;;;;;;4933615;29;20130;-60
2021/12/10 08:51:33;;;;;;;8.95;5.07;;;;;;;;;;4916234;29;20080;-61
2021/12/10 08:54:00;;;;;;;12.18;5.60;;;;;;;;;;4934227;29;20071;-60
2021/12/10 08:56:26;;;;;;;7.88;5.35;;;;;;;;;;4934405;29;20047;-60
2021/12/10 08:58:52;;;;;;;10.02;5.47;;;;;;;;;;4933117;29;20051;-59
2021/12/10 09:01:20;;;;;;;8.43;5.05;;;;;;;;;;4933197;29;20040;-59
2021/12/10 09:03:48;;;;;;;10.68;5.70;;;;;;;;;;4928534;29;20052;-61
2021/12/10 09:06:15;;;;;;;8.65;5.20;;;;;;;;;;4933174;29;20035;-59
2021/12/10 09:08:41;;;;;;;7.57;5.22;;;;;;;;;;4933345;29;20036;-60
2021/12/10 09:11:08;;;;;;;10.10;5.07;;;;;;;;;;4933328;29;20048;-59
2021/12/10 09:13:34;;;;;;;8.35;4.97;;;;;;;;;;4933656;29;20043;-59
2021/12/10 09:16:02;;;;;;;9.55;4.80;;;;;;;;;;4933463;29;20035;-60
2021/12/10 09:18:29;;;;;;;10.43;4.90;;;;;;;;;;4933699;29;20502;-60
2021/12/10 09:20:57;;;;;;;9.68;4.97;;;;;;;;;;4933381;29;20505;-59
2021/12/10 09:23:24;;;;;;;7.10;2.95;;;;;;;;;;4915571;29;20058;-60
2021/12/10 09:25:52;;;;;;;8.15;4.40;;;;;;;;;;4932348;29;20515;-61
2021/12/10 09:28:18;;;;;;;10.00;4.93;;;;;;;;;;4933385;29;20126;-60
2021/12/10 09:30:46;;;;;;;8.35;4.03;;;;;;;;;;4933011;29;20072;-61
2021/12/10 09:33:12;;;;;;;8.45;4.63;;;;;;;;;;4932680;29;20090;-59
2021/12/10 09:35:41;;;;;;;9.93;4.65;;;;;;;;;;4933063;29;20044;-59
2021/12/10 09:38:07;;;;;;;6.45;4.07;;;;;;;;;;4932943;29;20406;-58
2021/12/10 09:40:38;;;;;;;7.85;4.10;;;;;;;;;;4932548;29;20122;-59
2021/12/10 09:43:05;;;;;;;9.75;4.35;;;;;;;;;;4932620;29;20044;-60
2021/12/10 09:45:33;;;;;;;9.75;5.07;;;;;;;;;;4932529;29;20445;-59
2021/12/10 09:47:59;;;;;;;8.27;4.00;;;;;;;;;;4932755;29;20146;-60
2021/12/10 09:50:27;;;;;;;8.80;3.92;;;;;;;;;;4935112;29;20062;-60
2021/12/10 09:52:54;;;;;;;6.97;3.63;;;;;;;;;;4936266;29;20564;-60
2021/12/10 09:55:21;;;;;;;6.28;3.50;;;;;;;;;;4935909;29;20066;-60
2021/12/10 09:57:48;;;;;;;8.32;3.97;;;;;;;;;;4936315;29;20043;-59
2021/12/10 10:00:35;;;;;;;6.57;3.80;;;;;;;;;;4935767;29;20043;-59
2021/12/10 10:03:02;;;;;;;7.32;4.00;;;;;;;;;;4935829;29;20126;-59
2021/12/10 10:05:31;;;;;;;6.45;3.90;;;;;;;;;;4935710;29;20158;-60
2021/12/10 10:07:58;;;;;;;6.75;3.85;;;;;;;;;;4935871;29;20044;-59
2021/12/10 10:10:28;;;;;;;7.60;3.53;;;;;;;;;;4935457;29;20043;-59
2021/12/10 10:12:55;;;;;;;9.73;3.58;;;;;;;;;;4935552;29;20062;-59
2021/12/10 10:15:27;;;;;;;9.65;3.70;;;;;;;;;;4934422;29;20046;-59
2021/12/10 10:17:54;;;;;;;8.13;4.10;;;;;;;;;;4935632;29;20083;-60
2021/12/10 10:20:21;;;;;;;10.68;3.85;;;;;;;;;;4935615;29;20048;-60
2021/12/10 10:22:47;;;;;;;4.60;3.13;;;;;;;;;;4935783;29;20047;-58
2021/12/10 10:25:14;;;;;;;8.98;3.85;;;;;;;;;;4935476;29;20891;-59
2021/12/10 10:27:41;;;;;;;9.85;3.50;;;;;;;;;;4935279;29;20082;-59
2021/12/10 10:30:11;;;;;;;6.90;3.53;;;;;;;;;;4935420;29;20047;-59
2021/12/10 10:32:38;;;;;;;10.07;4.88;;;;;;;;;;4935213;29;20047;-59
2021/12/10 10:35:08;;;;;;;7.38;3.50;;;;;;;;;;4935067;29;20090;-60
2021/12/10 10:37:35;;;;;;;8.45;4.28;;;;;;;;;;4934981;29;20047;-60
2021/12/10 10:40:02;;;;;;;6.55;3.40;;;;;;;;;;4935489;29;20047;-59
2021/12/10 10:42:29;;;;;;;6.43;3.35;;;;;;;;;;4935002;29;20048;-58
2021/12/10 10:44:58;;;;;;;10.48;3.35;;;;;;;;;;4935163;29;20074;-59
2021/12/10 10:47:26;;;;;;;7.78;3.35;;;;;;;;;;4935032;29;20561;-60
2021/12/10 10:49:54;;;;;;;5.90;3.83;;;;;;;;;;4935093;29;20056;-60
2021/12/10 10:52:31;;;;;;;6.05;3.13;;;;;;;;;;4931504;29;20394;-60
2021/12/10 10:55:14;;;;;;;5.95;3.28;;;;;;;;;;4934196;29;20114;-60
2021/12/10 10:57:48;;;;;;;5.70;3.03;;;;;;;;;;4934596;29;20044;-61
2021/12/10 11:00:18;;;;;;;6.85;3.35;;;;;;;;;;4934594;29;20066;-61
2021/12/10 11:02:52;;;;;;;6.40;3.22;;;;;;;;;;4934501;29;20080;-59
2021/12/10 11:05:19;;;;;;;6.65;3.80;;;;;;;;;;4934695;29;20043;-60
2021/12/10 11:07:47;;;;;;;6.30;3.20;;;;;;;;;;4933440;29;20050;-61
2021/12/10 11:10:14;;;;;;;7.32;3.22;;;;;;;;;;4933982;29;20043;-59
2021/12/10 11:12:42;;;;;;;6.50;4.38;;;;;;;;;;4934351;29;20042;-60
2021/12/10 11:15:10;;;;;;;6.93;3.47;;;;;;;;;;4934222;29;20079;-61
2021/12/10 11:17:38;;;;;;;7.00;3.20;;;;;;;;;;4933237;29;20126;-60
2021/12/10 11:20:13;;;;;;;4.68;2.60;;;;;;;;;;4933840;29;20035;-60
2021/12/10 11:22:47;;;;;;;5.53;2.97;;;;;;;;;;4934220;29;20502;-59
2021/12/10 11:25:15;;;;;;;5.07;2.80;;;;;;;;;;4934173;29;20402;-60
2021/12/10 11:27:43;;;;;;;5.50;2.72;;;;;;;;;;4933929;29;20051;-60
2021/12/10 11:30:12;;;;;;;8.13;3.53;;;;;;;;;;4933169;29;20055;-60
2021/12/10 11:33:07;;;;;;;9.02;2.97;;;8.30;99.90;;;;;;4933411;29;20059;-60
2021/12/10 11:35:50;;;;;;;5.30;3.00;;;;;;;;;;4933000;29;20058;-62
2021/12/10 11:38:17;;;;;;;6.90;3.03;;;;;;;;;;4933673;29;20047;-59
2021/12/10 11:40:43;;;;;;;6.35;2.95;;;;;;;;;;4933645;29;20051;-60
2021/12/10 11:43:33;;;;;;;4.07;2.72;;;;;;;;;;4934069;29;20051;-59
2021/12/10 11:46:44;;;;;;;9.40;5.05;;;;;;;;;;4934044;29;20056;-58
2021/12/10 11:49:07;;;;;;;7.60;3.22;;;;;;;;;;4932385;29;20047;-59
2021/12/10 11:51:36;;;;;;;6.38;2.92;;;;;;;;;;4933722;29;20099;-59
2021/12/10 11:54:05;;;;;;;5.53;2.75;;;;;;;;;;4933477;29;20057;-60
2021/12/10 11:56:38;;;;;;;8.43;2.92;;;;;;;;;;4933695;29;20050;-59
2021/12/10 11:59:05;;;;;;;6.38;2.60;;;;;;;;;;4933331;29;20044;-59
2021/12/10 12:01:31;;;;;;;4.10;2.20;;;;;;;;;;4932864;29;20439;-59
2021/12/10 12:03:57;;;;;;;8.25;2.90;;;;;;;;;;4933321;29;20070;-59
2021/12/10 12:06:24;;;;;;;4.03;2.20;;;;;;;;;;4933731;29;20043;-60
2021/12/10 12:08:50;;;;;;;4.82;2.92;;;;;;;;;;4932424;29;20083;-60
2021/12/10 12:11:16;;;;;;;4.22;2.25;;;;;;;;;;4932797;29;20083;-59
2021/12/10 12:13:53;;;;;;;5.57;2.45;;;;;;;;;;4933044;29;20046;-58
2021/12/10 12:16:24;;;;;;;4.68;2.80;;;;;;;;;;4933490;29;20047;-60
2021/12/10 12:18:52;;;;;;;8.90;2.67;;;;;;;;;;4933397;29;20036;-60
2021/12/10 12:27:18;;;;;;;7.07;2.20;;;;;;;;;;4911923;29;20055;-59
2021/12/10 12:29:46;;;;;;;5.57;2.08;;;;;;;;;;4912096;29;20078;-59
2021/12/10 12:32:22;;;;;;;3.30;1.90;;;;;;;;;;4911749;29;20099;-59
2021/12/10 12:34:49;;;;;;;6.60;2.80;;;;;;;;;;4911711;29;20493;-60
2021/12/10 12:37:16;;;;;;;6.38;3.50;;;;;;;;;;4911309;29;20032;-58
2021/12/10 12:39:45;;;;;;;9.88;6.97;;;;;;;;;;4908432;29;20040;-60
2021/12/10 12:42:23;;;;;;;13.63;9.40;;;;;;;;;;4911193;29;20040;-59
2021/12/10 12:44:56;;;;;;;16.48;14.43;;;;;;;;;;4895600;29;20438;-59
2021/12/10 12:47:32;;;;;;;11.52;4.72;;;;;;;;;;4895509;29;20051;-60
2021/12/10 12:50:06;;;;;;;7.30;2.50;;;;;;;;;;4911556;29;20055;-60
2021/12/10 12:52:43;;;;;;;5.85;2.10;;;;;;;;;;4911756;29;20091;-59
2021/12/10 12:55:24;;;;;;;5.07;2.20;;;;;;;;;;4911611;29;20052;-59
2021/12/10 12:57:57;;;;;;;11.90;2.80;;;;;;;;;;4920244;29;20055;-60
2021/12/10 13:00:28;;;;;;;;;;;11.40;99.90;;;;;;4932989;29;20043;-60
2021/12/10 13:02:56;;;;;;;5.32;2.42;;;;;;;;;;4932975;29;19919;-61
2021/12/10 13:05:37;;;;;;;4.25;2.40;;;;;;;;;;4931814;29;20043;-60
2021/12/10 13:08:05;;;;;;;6.80;2.08;;;10.10;99.90;;;;;;4931995;29;20123;-60
2021/12/10 13:10:34;;;;;;;4.70;2.05;;;;;;;;;;4932286;29;20103;-61
2021/12/10 13:13:11;;;;;;;9.93;2.40;;;;;;;;;;4931800;29;20059;-59
2021/12/10 13:15:38;;;;;;;6.45;2.55;;;;;;;;;;4933034;29;20073;-59
2021/12/10 13:18:06;;;;;;;8.35;2.17;;;;;;;;;;4932785;29;20094;-61
2021/12/10 13:20:38;;;;;;;4.28;2.08;;;;;;;;;;4932538;29;20095;-60
2021/12/10 13:23:06;;;;;;;6.00;2.03;;;;;;;;;;4933990;29;20047;-59
2021/12/10 13:25:33;;;;;;;6.63;2.33;;;;;;;;;;4936199;29;20046;-60
2021/12/10 13:28:00;;;;;;;4.32;1.75;;;;;;;;;;4936653;29;20047;-60
2021/12/10 13:30:32;;;;;;;11.30;2.20;;;;;;;;;;4935539;29;20040;-59
2021/12/10 13:32:59;;;;;;;4.00;2.20;;;;;;;;;;4935522;29;20087;-59
2021/12/10 13:35:27;;;;;;;7.10;2.67;;;;;;;;;;4935307;29;20051;-60
2021/12/10 13:37:54;;;;;;;6.78;2.53;;;;;;;;;;4935162;29;20048;-61
2021/12/10 13:40:21;;;;;;;5.95;2.35;;;;;;;;;;4934969;29;20047;-60
2021/12/10 13:42:47;;;;;;;6.55;2.10;;;;;;;;;;4936306;29;20048;-60
2021/12/10 13:45:17;;;;;;;5.65;2.00;;;;;;;;;;4936739;29;20505;-59
2021/12/10 13:47:51;;;;;;;5.45;2.00;;;;;;;;;;4935249;29;20043;-59
2021/12/10 13:50:19;;;;;;;4.25;1.95;;;;;;;;;;4935104;29;20051;-61
2021/12/10 13:52:50;;;;;;;9.00;2.30;;;;;;;;;;4936048;29;20126;-60
2021/12/10 13:55:16;;;;;;;3.58;2.00;;;;;;;;;;4935935;29;20062;-60
2021/12/10 13:57:42;;;;;;;9.45;2.40;;;;;;;;;;4935980;29;20394;-59
2021/12/10 14:00:11;;;;;;;6.55;2.17;;;;;;;;;;4936143;29;20056;-61
2021/12/10 14:02:42;;;;;;;8.65;2.15;;;;;;;;;;4936048;29;20035;-59
2021/12/10 14:05:20;;;;;;;7.45;1.92;;;;;;;;;;4935867;29;20127;-61
2021/12/10 14:07:59;;;;;;;10.65;2.40;;;;;;;;;;4936274;29;20052;-60
2021/12/10 14:10:33;;;;;;;10.32;3.72;;;;;;;;;;4935728;29;20418;-60
2021/12/10 14:13:01;;;;;;;7.13;2.58;;;;;;;;;;4936233;29;20047;-60
2021/12/10 14:15:36;;;;;;;5.18;2.08;;;;;;;;;;4935791;29;20091;-60
2021/12/10 14:18:10;;;;;;;3.42;1.85;;;;;;;;;;4935839;29;20383;-60
2021/12/10 14:20:36;;;;;;;4.07;2.13;;;;;;;;;;4935544;29;20047;-60
2021/12/10 14:23:10;;;;;;;8.55;2.20;;;;;;;;;;4935896;29;20450;-60
2021/12/10 14:25:45;;;;;;;5.32;2.30;;;;;;;;;;4935442;29;20126;-60
2021/12/10 14:28:16;;;;;;;10.20;2.30;;;;;;;;;;4928869;29;20044;-60
2021/12/10 14:30:48;;;;;;;4.80;2.53;;;;;;;;;;4934172;29;20375;-60
2021/12/10 14:33:17;;;;;;;6.03;2.22;;;;;;;;;;4935391;29;20068;-59
2021/12/10 14:35:45;;;;;;;7.53;2.58;;;;;;;;;;4934765;29;20505;-60
2021/12/10 14:38:11;;;;;;;6.15;3.08;;;;;;;;;;4935577;29;20036;-60
2021/12/10 14:40:47;;;;;;;6.10;2.40;;;;;;;;;;4934629;29;20042;-59
2021/12/10 14:43:21;;;;;;;8.30;2.55;;;;;;;;;;4934319;29;20375;-60
2021/12/10 14:46:02;;;;;;;7.68;3.55;;;;;;;;;;4933704;29;20375;-60
2021/12/10 14:48:28;;;;;;;6.95;2.72;;;;;;;;;;4935280;29;20044;-61
2021/12/10 14:51:06;;;;;;;4.65;2.40;;;;;;;;;;4933687;29;20047;-59
2021/12/10 14:53:42;;;;;;;5.85;2.33;;;;;;;;;;4934856;29;20078;-58
2021/12/10 14:56:16;;;;;;;5.63;2.42;;;;;;;;;;4934618;29;20043;-59
2021/12/10 14:59:00;;;;;;;6.07;3.08;;;;;;;;;;4934799;29;20061;-60
2021/12/10 15:01:26;;;;;;;3.97;2.63;;;;;;;;;;4930897;29;20047;-60